Cherry, IL (61317)

12:20 PM CST en Noviembre 24, 2017 (GMT -0600)
KILLAMOI3 | | Change Station
Aviso en curso: Special Statement

Alt 0 ft 41.48 °N, 89.22 °W | Updated 6 minutes ago

Despejado
Despejado
60.2 ° F
Sensación térmica 60.2 ° F
N
8.0
Viento Variable Viento desde Sur
Gusts 22.0 mph

Hoy
Alta -- | Baja -- ° F
--% Posibilidad de precipitaciones
Ayer
Alta -- | Baja -- ° F
Precip. -- pul
Presión 29.59 pul
Visibilidad 10.0 Millas
Nubes Despejado
Punto de rocío 37 ° F
Humedad 43%
Precipitaciones 0.00 pul
Espesor de la nieve No disponible.
6:56 AM 4:30 PM
Creciente, 32% visible
METAR KVYS 241755Z AUTO 18012G20KT 10SM CLR 16/03 A2959 RMK AO2 T01560026 10156 20000
Presión 29.59 pul
Visibilidad 10.0 Millas
Nubes Despejado
Punto de rocío 37 ° F
Humedad 43%
Precipitaciones 0.00 pul
Espesor de la nieve No disponible.
6:56 AM 4:30 PM
Creciente, 32% visible
METAR KVYS 241755Z AUTO 18012G20KT 10SM CLR 16/03 A2959 RMK AO2 T01560026 10156 20000

Get Your Daily Forecast Email!

Thanks for signing up!

Be on the lookout for a verification email in your inbox.

You'll start receiving severe weather alerts in your inbox..

×

10-Day Weather Forecast

Almanac

Astronomía

Nov. 24, 2017 Salida Puesta
Hora real
Crepúsculo civil
Crepúsculo náutico
Crepúsculo astronómico
Luna
Horas de luz
Horas de luz
Tomorrow will be .
, % of the Moon is Illuminated

Extremos de hoy

Máximos del estado Bajos del estado

Community

WunderPhotos

Category 6

Welcome to Category 6. This is the collective home for Weather Underground's featured writeups by Dr. Jeff Masters (right), Bob Henson (left), Chris Burt, and other regular contributors.

Nearby

Calidad del aire

  Calidad del aire Índice AQ Contaminante
Not available.

Grosos de nieve

Estación Profundido Altura

Actividad de terremotos

Ciudad Distance Mag. Tiempo y dato
Magnitud mínima muestra es 2,5.

Temperaturas de aguas costeras

Lugar Temperatura

Stations

Estaciones meteorológicas cercanas

Ubicación de la estación Temp. Vientos helados Punto de rocío Humedad Viento Precip. Alt Actualizado Tipo
                   

Watches & Warnings

Special Statement
Issued: 11:34 AM CST Nov. 24, 2017 – National Weather Service

... Windy conditions creating a very high fire risk this
afternoon...

The combination of unseasonably warm temperatures, dry
vegetation, low humidity levels, and winds gusting up to 30 mph
has created a very high risk of grass fires this afternoon.

Outdoor burning is discouraged. The strong gusty winds will
diminish with sunset.


1134 am CST Fri Nov 24 2017

... Windy conditions creating a very high fire risk this
afternoon...

The combination of unseasonably warm temperatures, dry
vegetation, low humidity levels, and winds gusting up to 30 mph
has created a very high risk of grass fires this afternoon.

Outdoor burning is discouraged. The strong gusty winds will
diminish with sunset.